sensor_id;sensor_type;location;lat;lon;timestamp;temperature;humidity
2605;DHT22;1312;50.298;8.520;2024-01-11T00:01:15;-7.30;99.90
2605;DHT22;1312;50.298;8.520;2024-01-11T00:03:43;-7.10;7.50
2605;DHT22;1312;50.298;8.520;2024-01-11T00:06:11;-7.10;1.00
2605;DHT22;1312;50.298;8.520;2024-01-11T00:08:39;-7.50;1.00
2605;DHT22;1312;50.298;8.520;2024-01-11T00:11:08;-7.60;99.90
2605;DHT22;1312;50.298;8.520;2024-01-11T00:13:36;-7.70;99.90
2605;DHT22;1312;50.298;8.520;2024-01-11T00:16:04;-7.80;99.90
2605;DHT22;1312;50.298;8.520;2024-01-11T00:18:32;-7.80;99.90
2605;DHT22;1312;50.298;8.520;2024-01-11T00:21:00;-7.80;1.00
2605;DHT22;1312;50.298;8.520;2024-01-11T00:23:28;-7.90;1.00
2605;DHT22;1312;50.298;8.520;2024-01-11T00:25:56;-8.10;1.00
2605;DHT22;1312;50.298;8.520;2024-01-11T00:28:25;-8.00;1.00
2605;DHT22;1312;50.298;8.520;2024-01-11T00:30:53;-7.90;1.00
2605;DHT22;1312;50.298;8.520;2024-01-11T00:33:21;-8.00;1.00
2605;DHT22;1312;50.298;8.520;2024-01-11T00:35:49;-7.20;99.90
2605;DHT22;1312;50.298;8.520;2024-01-11T00:38:17;-7.00;12.20
2605;DHT22;1312;50.298;8.520;2024-01-11T00:40:45;-7.10;1.00
2605;DHT22;1312;50.298;8.520;2024-01-11T00:43:13;-7.00;1.00
2605;DHT22;1312;50.298;8.520;2024-01-11T00:48:11;-7.60;23.50
2605;DHT22;1312;50.298;8.520;2024-01-11T00:50:39;-7.90;99.90
2605;DHT22;1312;50.298;8.520;2024-01-11T00:53:07;-8.00;1.00
2605;DHT22;1312;50.298;8.520;2024-01-11T00:55:36;-8.10;1.00
2605;DHT22;1312;50.298;8.520;2024-01-11T00:58:04;-8.20;1.00
2605;DHT22;1312;50.298;8.520;2024-01-11T01:00:32;-8.20;1.00
2605;DHT22;1312;50.298;8.520;2024-01-11T01:03:01;-8.00;5.90
2605;DHT22;1312;50.298;8.520;2024-01-11T01:05:29;-7.60;1.00
2605;DHT22;1312;50.298;8.520;2024-01-11T01:07:57;-7.60;99.90
2605;DHT22;1312;50.298;8.520;2024-01-11T01:10:25;-8.00;99.90
2605;DHT22;1312;50.298;8.520;2024-01-11T01:12:53;-7.90;99.90
2605;DHT22;1312;50.298;8.520;2024-01-11T01:15:21;-7.60;99.90
2605;DHT22;1312;50.298;8.520;2024-01-11T01:17:48;-7.90;41.70
2605;DHT22;1312;50.298;8.520;2024-01-11T01:20:18;-7.90;99.90
2605;DHT22;1312;50.298;8.520;2024-01-11T01:22:46;-7.80;99.90
2605;DHT22;1312;50.298;8.520;2024-01-11T01:25:14;-8.10;99.90
2605;DHT22;1312;50.298;8.520;2024-01-11T01:27:42;-8.10;99.90
2605;DHT22;1312;50.298;8.520;2024-01-11T01:30:10;-8.10;1.00
2605;DHT22;1312;50.298;8.520;2024-01-11T01:32:38;-8.00;1.00
2605;DHT22;1312;50.298;8.520;2024-01-11T01:35:07;-7.80;99.90
2605;DHT22;1312;50.298;8.520;2024-01-11T01:37:36;-7.60;99.90
2605;DHT22;1312;50.298;8.520;2024-01-11T01:40:06;-7.70;99.90
2605;DHT22;1312;50.298;8.520;2024-01-11T01:42:34;-7.90;99.90
2605;DHT22;1312;50.298;8.520;2024-01-11T01:45:02;-7.40;99.90
2605;DHT22;1312;50.298;8.520;2024-01-11T01:47:31;-7.10;9.70
2605;DHT22;1312;50.298;8.520;2024-01-11T01:49:59;-7.10;1.00
2605;DHT22;1312;50.298;8.520;2024-01-11T01:52:27;-7.20;1.00
2605;DHT22;1312;50.298;8.520;2024-01-11T01:54:58;-7.10;20.10
2605;DHT22;1312;50.298;8.520;2024-01-11T01:57:26;-7.40;1.00
2605;DHT22;1312;50.298;8.520;2024-01-11T01:59:54;-7.40;1.00
2605;DHT22;1312;50.298;8.520;2024-01-11T02:02:22;-7.60;1.00
2605;DHT22;1312;50.298;8.520;2024-01-11T02:04:51;-7.80;3.00
2605;DHT22;1312;50.298;8.520;2024-01-11T02:07:19;-7.90;81.50
2605;DHT22;1312;50.298;8.520;2024-01-11T02:09:47;-8.10;99.90
2605;DHT22;1312;50.298;8.520;2024-01-11T02:12:17;-8.30;99.90
2605;DHT22;1312;50.298;8.520;2024-01-11T02:14:45;-8.30;99.90
2605;DHT22;1312;50.298;8.520;2024-01-11T02:17:12;-8.00;99.90
2605;DHT22;1312;50.298;8.520;2024-01-11T02:19:40;-8.10;99.90
2605;DHT22;1312;50.298;8.520;2024-01-11T02:22:15;-8.10;99.90
2605;DHT22;1312;50.298;8.520;2024-01-11T02:24:46;-7.70;1.00
2605;DHT22;1312;50.298;8.520;2024-01-11T02:27:14;-7.60;99.90
2605;DHT22;1312;50.298;8.520;2024-01-11T02:29:42;-7.50;56.70
2605;DHT22;1312;50.298;8.520;2024-01-11T02:32:10;-7.90;1.00
2605;DHT22;1312;50.298;8.520;2024-01-11T02:34:39;-7.80;99.90
2605;DHT22;1312;50.298;8.520;2024-01-11T02:37:07;-7.50;99.90
2605;DHT22;1312;50.298;8.520;2024-01-11T02:39:35;-7.30;5.10
2605;DHT22;1312;50.298;8.520;2024-01-11T02:42:05;-7.40;1.00
2605;DHT22;1312;50.298;8.520;2024-01-11T02:44:33;-7.50;1.00
2605;DHT22;1312;50.298;8.520;2024-01-11T02:47:01;-7.80;1.00
2605;DHT22;1312;50.298;8.520;2024-01-11T02:49:29;-7.40;88.50
2605;DHT22;1312;50.298;8.520;2024-01-11T02:51:56;-7.70;44.10
2605;DHT22;1312;50.298;8.520;2024-01-11T02:54:24;-7.40;99.90
2605;DHT22;1312;50.298;8.520;2024-01-11T02:56:52;-7.10;1.00
2605;DHT22;1312;50.298;8.520;2024-01-11T02:59:21;-7.10;1.00
2605;DHT22;1312;50.298;8.520;2024-01-11T03:01:50;-7.10;1.00
2605;DHT22;1312;50.298;8.520;2024-01-11T03:04:18;-7.30;1.00
2605;DHT22;1312;50.298;8.520;2024-01-11T03:06:46;-7.70;1.00
2605;DHT22;1312;50.298;8.520;2024-01-11T03:09:14;-7.80;99.90
2605;DHT22;1312;50.298;8.520;2024-01-11T03:11:42;-7.80;99.90
2605;DHT22;1312;50.298;8.520;2024-01-11T03:14:09;-7.90;99.90
2605;DHT22;1312;50.298;8.520;2024-01-11T03:16:39;-8.00;99.90
2605;DHT22;1312;50.298;8.520;2024-01-11T03:19:08;-8.20;99.90
2605;DHT22;1312;50.298;8.520;2024-01-11T03:21:41;-8.20;1.00
2605;DHT22;1312;50.298;8.520;2024-01-11T03:24:09;-8.20;99.90
2605;DHT22;1312;50.298;8.520;2024-01-11T03:26:37;-8.30;1.00
2605;DHT22;1312;50.298;8.520;2024-01-11T03:29:05;-8.50;1.00
2605;DHT22;1312;50.298;8.520;2024-01-11T03:31:33;-8.70;1.00
2605;DHT22;1312;50.298;8.520;2024-01-11T03:34:02;-8.80;1.00
2605;DHT22;1312;50.298;8.520;2024-01-11T03:36:30;-8.80;99.90
2605;DHT22;1312;50.298;8.520;2024-01-11T03:38:57;-8.80;99.90
2605;DHT22;1312;50.298;8.520;2024-01-11T03:41:25;-8.60;99.90
2605;DHT22;1312;50.298;8.520;2024-01-11T03:43:53;-8.10;17.50
2605;DHT22;1312;50.298;8.520;2024-01-11T03:46:21;-8.20;1.00
2605;DHT22;1312;50.298;8.520;2024-01-11T03:48:49;-8.30;99.90
2605;DHT22;1312;50.298;8.520;2024-01-11T03:51:19;-8.40;1.00
2605;DHT22;1312;50.298;8.520;2024-01-11T03:53:47;-8.30;1.00
2605;DHT22;1312;50.298;8.520;2024-01-11T03:56:15;-8.50;1.00
2605;DHT22;1312;50.298;8.520;2024-01-11T03:58:43;-8.60;1.00
2605;DHT22;1312;50.298;8.520;2024-01-11T04:01:12;-8.80;1.00
2605;DHT22;1312;50.298;8.520;2024-01-11T04:03:41;-8.90;1.00
2605;DHT22;1312;50.298;8.520;2024-01-11T04:06:19;-8.80;99.90
2605;DHT22;1312;50.298;8.520;2024-01-11T04:08:49;-8.50;1.00
2605;DHT22;1312;50.298;8.520;2024-01-11T04:11:17;-8.70;99.90
2605;DHT22;1312;50.298;8.520;2024-01-11T04:13:45;-8.80;99.90
2605;DHT22;1312;50.298;8.520;2024-01-11T04:16:14;-9.00;99.90
2605;DHT22;1312;50.298;8.520;2024-01-11T04:18:42;-9.00;99.90
2605;DHT22;1312;50.298;8.520;2024-01-11T04:21:21;-8.80;1.00
2605;DHT22;1312;50.298;8.520;2024-01-11T04:23:50;-8.50;1.00
2605;DHT22;1312;50.298;8.520;2024-01-11T04:26:18;-8.60;99.90
2605;DHT22;1312;50.298;8.520;2024-01-11T04:28:46;-8.80;24.20
2605;DHT22;1312;50.298;8.520;2024-01-11T04:31:15;-8.90;29.90
2605;DHT22;1312;50.298;8.520;2024-01-11T04:33:44;-8.90;99.90
2605;DHT22;1312;50.298;8.520;2024-01-11T04:36:13;-8.60;1.00
2605;DHT22;1312;50.298;8.520;2024-01-11T04:38:42;-8.40;99.90
2605;DHT22;1312;50.298;8.520;2024-01-11T04:41:11;-8.50;1.00
2605;DHT22;1312;50.298;8.520;2024-01-11T04:43:40;-8.50;1.00
2605;DHT22;1312;50.298;8.520;2024-01-11T04:46:15;-8.70;1.00
2605;DHT22;1312;50.298;8.520;2024-01-11T04:48:44;-9.00;1.00
2605;DHT22;1312;50.298;8.520;2024-01-11T04:51:13;-9.30;1.00
2605;DHT22;1312;50.298;8.520;2024-01-11T04:53:43;-9.40;17.80
2605;DHT22;1312;50.298;8.520;2024-01-11T04:56:13;-9.30;99.90
2605;DHT22;1312;50.298;8.520;2024-01-11T04:58:42;-9.30;1.00
2605;DHT22;1312;50.298;8.520;2024-01-11T05:01:12;-9.50;1.00
2605;DHT22;1312;50.298;8.520;2024-01-11T05:03:41;-9.40;1.00
2605;DHT22;1312;50.298;8.520;2024-01-11T05:06:15;-9.30;1.00
2605;DHT22;1312;50.298;8.520;2024-01-11T05:08:45;-9.00;1.00
2605;DHT22;1312;50.298;8.520;2024-01-11T05:11:16;-9.00;1.00
2605;DHT22;1312;50.298;8.520;2024-01-11T05:13:45;-8.90;1.00
2605;DHT22;1312;50.298;8.520;2024-01-11T05:16:19;-8.70;1.00
2605;DHT22;1312;50.298;8.520;2024-01-11T05:18:47;-8.60;1.00
2605;DHT22;1312;50.298;8.520;2024-01-11T05:21:15;-8.40;1.00
2605;DHT22;1312;50.298;8.520;2024-01-11T05:23:45;-8.40;1.00
2605;DHT22;1312;50.298;8.520;2024-01-11T05:26:14;-8.60;99.90
2605;DHT22;1312;50.298;8.520;2024-01-11T05:28:42;-8.50;1.00
2605;DHT22;1312;50.298;8.520;2024-01-11T05:31:11;-8.60;1.00
2605;DHT22;1312;50.298;8.520;2024-01-11T05:33:39;-8.40;1.00
2605;DHT22;1312;50.298;8.520;2024-01-11T05:36:08;-8.30;99.90
2605;DHT22;1312;50.298;8.520;2024-01-11T05:38:37;-8.30;99.90
2605;DHT22;1312;50.298;8.520;2024-01-11T05:41:07;-8.20;99.90
2605;DHT22;1312;50.298;8.520;2024-01-11T05:43:37;-8.50;99.90
2605;DHT22;1312;50.298;8.520;2024-01-11T05:46:05;-8.30;99.90
2605;DHT22;1312;50.298;8.520;2024-01-11T05:48:33;-8.30;99.90
2605;DHT22;1312;50.298;8.520;2024-01-11T05:51:02;-8.20;99.90
2605;DHT22;1312;50.298;8.520;2024-01-11T05:53:29;-8.30;99.90
2605;DHT22;1312;50.298;8.520;2024-01-11T05:56:02;-8.20;99.90
2605;DHT22;1312;50.298;8.520;2024-01-11T05:58:36;-8.40;99.90
2605;DHT22;1312;50.298;8.520;2024-01-11T06:01:04;-8.30;99.90
2605;DHT22;1312;50.298;8.520;2024-01-11T06:03:32;-8.30;99.90
2605;DHT22;1312;50.298;8.520;2024-01-11T06:06:01;-8.20;99.90
2605;DHT22;1312;50.298;8.520;2024-01-11T06:08:29;-8.20;99.90
2605;DHT22;1312;50.298;8.520;2024-01-11T06:10:58;-8.30;99.90
2605;DHT22;1312;50.298;8.520;2024-01-11T06:13:26;-8.40;99.90
2605;DHT22;1312;50.298;8.520;2024-01-11T06:15:56;-8.40;99.90
2605;DHT22;1312;50.298;8.520;2024-01-11T06:18:23;-8.50;99.90
2605;DHT22;1312;50.298;8.520;2024-01-11T06:20:51;-8.40;99.90
2605;DHT22;1312;50.298;8.520;2024-01-11T06:23:19;-8.30;99.90
2605;DHT22;1312;50.298;8.520;2024-01-11T06:25:47;-8.30;99.90
2605;DHT22;1312;50.298;8.520;2024-01-11T06:28:15;-8.40;99.90
2605;DHT22;1312;50.298;8.520;2024-01-11T06:30:43;-8.40;99.90
2605;DHT22;1312;50.298;8.520;2024-01-11T06:33:12;-8.50;99.90
2605;DHT22;1312;50.298;8.520;2024-01-11T06:35:41;-8.50;99.90
2605;DHT22;1312;50.298;8.520;2024-01-11T06:38:08;-8.40;99.90
2605;DHT22;1312;50.298;8.520;2024-01-11T06:40:36;-8.40;99.90
2605;DHT22;1312;50.298;8.520;2024-01-11T06:43:04;-8.40;99.90
2605;DHT22;1312;50.298;8.520;2024-01-11T06:45:32;-8.40;99.90
2605;DHT22;1312;50.298;8.520;2024-01-11T06:48:00;-8.40;99.90
2605;DHT22;1312;50.298;8.520;2024-01-11T06:50:30;-8.40;99.90
2605;DHT22;1312;50.298;8.520;2024-01-11T06:52:57;-8.30;99.90
2605;DHT22;1312;50.298;8.520;2024-01-11T06:55:25;-8.30;99.90
2605;DHT22;1312;50.298;8.520;2024-01-11T06:57:54;-8.20;99.90
2605;DHT22;1312;50.298;8.520;2024-01-11T07:00:21;-8.20;99.90
2605;DHT22;1312;50.298;8.520;2024-01-11T07:02:49;-8.10;92.80
2605;DHT22;1312;50.298;8.520;2024-01-11T07:05:17;-8.10;88.70
2605;DHT22;1312;50.298;8.520;2024-01-11T07:07:47;-8.20;93.40
2605;DHT22;1312;50.298;8.520;2024-01-11T07:10:15;-8.20;99.90
2605;DHT22;1312;50.298;8.520;2024-01-11T07:12:43;-8.20;99.90
2605;DHT22;1312;50.298;8.520;2024-01-11T07:15:12;-8.10;99.90
2605;DHT22;1312;50.298;8.520;2024-01-11T07:17:41;-7.90;99.90
2605;DHT22;1312;50.298;8.520;2024-01-11T07:20:10;-8.00;9.40
2605;DHT22;1312;50.298;8.520;2024-01-11T07:22:40;-7.90;39.00
2605;DHT22;1312;50.298;8.520;2024-01-11T07:25:10;-7.90;23.70
2605;DHT22;1312;50.298;8.520;2024-01-11T07:27:38;-7.80;1.00
2605;DHT22;1312;50.298;8.520;2024-01-11T07:30:07;-7.90;1.00
2605;DHT22;1312;50.298;8.520;2024-01-11T07:32:35;-8.00;57.20
2605;DHT22;1312;50.298;8.520;2024-01-11T07:35:04;-8.00;63.60
2605;DHT22;1312;50.298;8.520;2024-01-11T07:37:38;-7.90;70.90
2605;DHT22;1312;50.298;8.520;2024-01-11T07:40:07;-7.80;52.10
2605;DHT22;1312;50.298;8.520;2024-01-11T07:42:39;-7.70;1.00
2605;DHT22;1312;50.298;8.520;2024-01-11T07:45:08;-7.80;1.00
2605;DHT22;1312;50.298;8.520;2024-01-11T07:47:37;-7.70;1.00
2605;DHT22;1312;50.298;8.520;2024-01-11T07:50:06;-7.70;1.00
2605;DHT22;1312;50.298;8.520;2024-01-11T07:52:36;-7.70;1.00
2605;DHT22;1312;50.298;8.520;2024-01-11T07:55:04;-7.60;1.00
2605;DHT22;1312;50.298;8.520;2024-01-11T07:57:34;-7.60;1.00
2605;DHT22;1312;50.298;8.520;2024-01-11T08:00:05;-7.50;1.00
2605;DHT22;1312;50.298;8.520;2024-01-11T08:02:34;-7.50;1.00
2605;DHT22;1312;50.298;8.520;2024-01-11T08:05:05;-7.50;1.00
2605;DHT22;1312;50.298;8.520;2024-01-11T08:07:34;-7.80;1.00
2605;DHT22;1312;50.298;8.520;2024-01-11T08:10:06;-7.60;1.00
2605;DHT22;1312;50.298;8.520;2024-01-11T08:12:36;-7.20;1.00
2605;DHT22;1312;50.298;8.520;2024-01-11T08:15:06;-5.80;1.00
2605;DHT22;1312;50.298;8.520;2024-01-11T08:17:37;-5.20;99.90
2605;DHT22;1312;50.298;8.520;2024-01-11T08:20:08;-4.90;99.90
2605;DHT22;1312;50.298;8.520;2024-01-11T08:22:39;-4.20;99.90
2605;DHT22;1312;50.298;8.520;2024-01-11T08:25:07;-4.10;99.90
2605;DHT22;1312;50.298;8.520;2024-01-11T08:27:36;-4.70;99.90
2605;DHT22;1312;50.298;8.520;2024-01-11T08:30:06;-5.10;99.90
2605;DHT22;1312;50.298;8.520;2024-01-11T08:32:35;-6.00;1.00
2605;DHT22;1312;50.298;8.520;2024-01-11T08:35:07;-6.50;1.00
2605;DHT22;1312;50.298;8.520;2024-01-11T08:37:37;-6.10;1.00
2605;DHT22;1312;50.298;8.520;2024-01-11T08:40:06;-5.70;1.00
2605;DHT22;1312;50.298;8.520;2024-01-11T08:42:34;-5.50;1.00
2605;DHT22;1312;50.298;8.520;2024-01-11T08:45:05;-4.50;99.90
2605;DHT22;1312;50.298;8.520;2024-01-11T08:47:34;-3.60;99.90
2605;DHT22;1312;50.298;8.520;2024-01-11T08:50:02;-2.00;99.90
2605;DHT22;1312;50.298;8.520;2024-01-11T08:52:33;-0.10;99.90
2605;DHT22;1312;50.298;8.520;2024-01-11T08:55:01;-0.50;99.90
2605;DHT22;1312;50.298;8.520;2024-01-11T08:57:29;0.00;99.90
2605;DHT22;1312;50.298;8.520;2024-01-11T08:59:57;1.30;94.40
2605;DHT22;1312;50.298;8.520;2024-01-11T09:02:26;2.80;67.70
2605;DHT22;1312;50.298;8.520;2024-01-11T09:04:54;3.70;28.30
2605;DHT22;1312;50.298;8.520;2024-01-11T09:07:22;3.40;25.80
2605;DHT22;1312;50.298;8.520;2024-01-11T09:09:50;3.20;24.30
2605;DHT22;1312;50.298;8.520;2024-01-11T09:12:23;3.20;23.50
2605;DHT22;1312;50.298;8.520;2024-01-11T09:14:51;3.60;31.50
2605;DHT22;1312;50.298;8.520;2024-01-11T09:17:19;5.00;27.00
2605;DHT22;1312;50.298;8.520;2024-01-11T09:19:48;4.80;21.80
2605;DHT22;1312;50.298;8.520;2024-01-11T09:22:17;5.40;32.80
2605;DHT22;1312;50.298;8.520;2024-01-11T09:24:45;6.20;27.90
2605;DHT22;1312;50.298;8.520;2024-01-11T09:27:13;7.10;29.90
2605;DHT22;1312;50.298;8.520;2024-01-11T09:29:42;7.10;29.10
2605;DHT22;1312;50.298;8.520;2024-01-11T09:32:12;7.80;29.00
2605;DHT22;1312;50.298;8.520;2024-01-11T09:34:40;7.70;27.80
2605;DHT22;1312;50.298;8.520;2024-01-11T09:37:10;7.70;24.80
2605;DHT22;1312;50.298;8.520;2024-01-11T09:39:38;6.50;18.00
2605;DHT22;1312;50.298;8.520;2024-01-11T09:42:08;6.60;16.20
2605;DHT22;1312;50.298;8.520;2024-01-11T09:44:37;6.70;17.20
2605;DHT22;1312;50.298;8.520;2024-01-11T09:47:08;8.80;27.20
2605;DHT22;1312;50.298;8.520;2024-01-11T09:49:43;8.70;25.50
2605;DHT22;1312;50.298;8.520;2024-01-11T09:52:15;8.80;25.10
2605;DHT22;1312;50.298;8.520;2024-01-11T09:54:44;9.70;30.50
2605;DHT22;1312;50.298;8.520;2024-01-11T09:57:12;9.30;28.10
2605;DHT22;1312;50.298;8.520;2024-01-11T09:59:41;10.50;35.30
2605;DHT22;1312;50.298;8.520;2024-01-11T10:02:10;9.50;29.10
2605;DHT22;1312;50.298;8.520;2024-01-11T10:04:42;11.20;39.90
2605;DHT22;1312;50.298;8.520;2024-01-11T10:07:13;10.80;37.50
2605;DHT22;1312;50.298;8.520;2024-01-11T10:09:43;10.10;32.50
2605;DHT22;1312;50.298;8.520;2024-01-11T10:12:11;9.30;28.00
2605;DHT22;1312;50.298;8.520;2024-01-11T10:14:38;9.90;30.50
2605;DHT22;1312;50.298;8.520;2024-01-11T10:17:07;9.70;29.50
2605;DHT22;1312;50.298;8.520;2024-01-11T10:19:39;8.80;24.00
2605;DHT22;1312;50.298;8.520;2024-01-11T10:22:08;9.40;27.40
2605;DHT22;1312;50.298;8.520;2024-01-11T10:24:40;11.10;37.30
2605;DHT22;1312;50.298;8.520;2024-01-11T10:27:09;10.60;33.90
2605;DHT22;1312;50.298;8.520;2024-01-11T10:29:37;11.00;37.10
2605;DHT22;1312;50.298;8.520;2024-01-11T10:32:05;10.80;36.10
2605;DHT22;1312;50.298;8.520;2024-01-11T10:34:34;9.30;26.70
2605;DHT22;1312;50.298;8.520;2024-01-11T10:37:06;9.70;28.60
2605;DHT22;1312;50.298;8.520;2024-01-11T10:39:35;8.60;21.80
2605;DHT22;1312;50.298;8.520;2024-01-11T10:42:06;9.30;26.40
2605;DHT22;1312;50.298;8.520;2024-01-11T10:44:37;9.00;24.10
2605;DHT22;1312;50.298;8.520;2024-01-11T10:47:09;8.80;23.50
2605;DHT22;1312;50.298;8.520;2024-01-11T10:49:39;9.80;28.50
2605;DHT22;1312;50.298;8.520;2024-01-11T10:52:11;9.30;26.50
2605;DHT22;1312;50.298;8.520;2024-01-11T10:54:40;9.20;25.00
2605;DHT22;1312;50.298;8.520;2024-01-11T10:57:12;10.60;32.70
2605;DHT22;1312;50.298;8.520;2024-01-11T10:59:40;10.90;34.30
2605;DHT22;1312;50.298;8.520;2024-01-11T11:02:22;10.30;30.80
2605;DHT22;1312;50.298;8.520;2024-01-11T11:04:53;10.00;28.50
2605;DHT22;1312;50.298;8.520;2024-01-11T11:07:23;11.60;39.70
2605;DHT22;1312;50.298;8.520;2024-01-11T11:09:51;10.50;32.60
2605;DHT22;1312;50.298;8.520;2024-01-11T11:12:22;10.40;32.60
2605;DHT22;1312;50.298;8.520;2024-01-11T11:14:51;10.10;31.50
2605;DHT22;1312;50.298;8.520;2024-01-11T11:17:20;9.70;30.00
2605;DHT22;1312;50.298;8.520;2024-01-11T11:19:48;9.70;29.90
2605;DHT22;1312;50.298;8.520;2024-01-11T11:22:16;11.30;40.90
2605;DHT22;1312;50.298;8.520;2024-01-11T11:24:46;11.80;44.30
2605;DHT22;1312;50.298;8.520;2024-01-11T11:27:13;10.70;37.10
2605;DHT22;1312;50.298;8.520;2024-01-11T11:29:47;10.80;38.20
2605;DHT22;1312;50.298;8.520;2024-01-11T11:32:15;10.40;35.90
2605;DHT22;1312;50.298;8.520;2024-01-11T11:34:44;9.90;32.20
2605;DHT22;1312;50.298;8.520;2024-01-11T11:37:12;10.00;32.90
2605;DHT22;1312;50.298;8.520;2024-01-11T11:39:50;10.00;31.50
2605;DHT22;1312;50.298;8.520;2024-01-11T11:42:18;9.30;26.70
2605;DHT22;1312;50.298;8.520;2024-01-11T11:44:50;10.30;32.50
2605;DHT22;1312;50.298;8.520;2024-01-11T11:47:19;10.20;31.10
2605;DHT22;1312;50.298;8.520;2024-01-11T11:50:04;9.00;25.00
2605;DHT22;1312;50.298;8.520;2024-01-11T11:52:35;8.30;21.60
2605;DHT22;1312;50.298;8.520;2024-01-11T11:55:06;8.70;22.80
2605;DHT22;1312;50.298;8.520;2024-01-11T11:57:35;8.70;23.10
2605;DHT22;1312;50.298;8.520;2024-01-11T12:00:05;9.80;28.50
2605;DHT22;1312;50.298;8.520;2024-01-11T12:02:34;9.10;26.90
2605;DHT22;1312;50.298;8.520;2024-01-11T12:05:04;9.50;27.10
2605;DHT22;1312;50.298;8.520;2024-01-11T12:07:32;9.60;27.70
2605;DHT22;1312;50.298;8.520;2024-01-11T12:10:00;10.50;34.00
2605;DHT22;1312;50.298;8.520;2024-01-11T12:12:28;10.40;31.10
2605;DHT22;1312;50.298;8.520;2024-01-11T12:14:57;11.40;38.20
2605;DHT22;1312;50.298;8.520;2024-01-11T12:17:27;10.60;32.60
2605;DHT22;1312;50.298;8.520;2024-01-11T12:19:55;11.20;37.00
2605;DHT22;1312;50.298;8.520;2024-01-11T12:22:25;11.50;39.00
2605;DHT22;1312;50.298;8.520;2024-01-11T12:24:53;10.30;31.40
2605;DHT22;1312;50.298;8.520;2024-01-11T12:27:21;11.00;35.10
2605;DHT22;1312;50.298;8.520;2024-01-11T12:29:49;11.50;38.80
2605;DHT22;1312;50.298;8.520;2024-01-11T12:32:26;11.50;39.20
2605;DHT22;1312;50.298;8.520;2024-01-11T12:34:57;10.90;34.60
2605;DHT22;1312;50.298;8.520;2024-01-11T12:37:25;10.60;31.10
2605;DHT22;1312;50.298;8.520;2024-01-11T12:39:57;10.90;33.40
2605;DHT22;1312;50.298;8.520;2024-01-11T12:42:26;11.30;35.20
2605;DHT22;1312;50.298;8.520;2024-01-11T12:44:54;11.40;36.50
2605;DHT22;1312;50.298;8.520;2024-01-11T12:47:26;11.40;35.70
2605;DHT22;1312;50.298;8.520;2024-01-11T12:49:55;11.80;39.00
2605;DHT22;1312;50.298;8.520;2024-01-11T12:55:49;11.10;33.60
2605;DHT22;1312;50.298;8.520;2024-01-11T12:58:29;9.70;25.40
2605;DHT22;1312;50.298;8.520;2024-01-11T13:00:57;9.70;25.00
2605;DHT22;1312;50.298;8.520;2024-01-11T13:03:26;10.70;30.40
2605;DHT22;1312;50.298;8.520;2024-01-11T13:05:55;10.90;31.80
2605;DHT22;1312;50.298;8.520;2024-01-11T13:08:24;11.50;36.30
2605;DHT22;1312;50.298;8.520;2024-01-11T13:10:53;10.60;29.80
2605;DHT22;1312;50.298;8.520;2024-01-11T13:13:21;10.60;30.00
2605;DHT22;1312;50.298;8.520;2024-01-11T13:15:51;11.30;34.70
2605;DHT22;1312;50.298;8.520;2024-01-11T13:18:19;12.60;44.00
2605;DHT22;1312;50.298;8.520;2024-01-11T13:20:48;11.80;39.30
2605;DHT22;1312;50.298;8.520;2024-01-11T13:23:18;12.10;40.30
2605;DHT22;1312;50.298;8.520;2024-01-11T13:25:48;12.20;41.60
2605;DHT22;1312;50.298;8.520;2024-01-11T13:28:17;11.90;39.00
2605;DHT22;1312;50.298;8.520;2024-01-11T13:30:46;11.50;35.90
2605;DHT22;1312;50.298;8.520;2024-01-11T13:33:16;10.20;26.10
2605;DHT22;1312;50.298;8.520;2024-01-11T13:35:45;10.10;24.30
2605;DHT22;1312;50.298;8.520;2024-01-11T13:38:15;10.10;25.00
2605;DHT22;1312;50.298;8.520;2024-01-11T13:40:43;11.30;31.80
2605;DHT22;1312;50.298;8.520;2024-01-11T13:43:11;10.70;38.70
2605;DHT22;1312;50.298;8.520;2024-01-11T13:45:38;9.80;23.50
2605;DHT22;1312;50.298;8.520;2024-01-11T13:48:06;9.40;21.90
2605;DHT22;1312;50.298;8.520;2024-01-11T13:50:34;9.20;20.10
2605;DHT22;1312;50.298;8.520;2024-01-11T13:53:03;9.50;21.80
2605;DHT22;1312;50.298;8.520;2024-01-11T13:55:32;9.60;22.20
2605;DHT22;1312;50.298;8.520;2024-01-11T13:58:06;10.50;26.70
2605;DHT22;1312;50.298;8.520;2024-01-11T14:00:34;11.40;32.90
2605;DHT22;1312;50.298;8.520;2024-01-11T14:03:02;11.70;35.40
2605;DHT22;1312;50.298;8.520;2024-01-11T14:05:32;11.00;30.20
2605;DHT22;1312;50.298;8.520;2024-01-11T14:08:01;10.50;26.50
2605;DHT22;1312;50.298;8.520;2024-01-11T14:10:34;11.50;33.20
2605;DHT22;1312;50.298;8.520;2024-01-11T14:13:03;9.50;20.70
2605;DHT22;1312;50.298;8.520;2024-01-11T14:15:31;10.90;28.00
2605;DHT22;1312;50.298;8.520;2024-01-11T14:17:59;9.70;22.10
2605;DHT22;1312;50.298;8.520;2024-01-11T14:20:27;10.90;27.10
2605;DHT22;1312;50.298;8.520;2024-01-11T14:22:55;10.90;28.20
2605;DHT22;1312;50.298;8.520;2024-01-11T14:25:23;11.10;28.70
2605;DHT22;1312;50.298;8.520;2024-01-11T14:27:54;10.70;26.20
2605;DHT22;1312;50.298;8.520;2024-01-11T14:30:23;11.00;28.20
2605;DHT22;1312;50.298;8.520;2024-01-11T14:32:51;10.60;25.00
2605;DHT22;1312;50.298;8.520;2024-01-11T14:35:19;9.50;19.50
2605;DHT22;1312;50.298;8.520;2024-01-11T14:37:47;9.60;18.80
2605;DHT22;1312;50.298;8.520;2024-01-11T14:40:15;9.50;18.80
2605;DHT22;1312;50.298;8.520;2024-01-11T14:42:43;10.60;24.00
2605;DHT22;1312;50.298;8.520;2024-01-11T14:45:13;10.10;21.70
2605;DHT22;1312;50.298;8.520;2024-01-11T14:47:41;9.90;21.00
2605;DHT22;1312;50.298;8.520;2024-01-11T14:50:09;9.40;17.70
2605;DHT22;1312;50.298;8.520;2024-01-11T14:52:38;9.80;19.40
2605;DHT22;1312;50.298;8.520;2024-01-11T14:55:07;9.50;17.50
2605;DHT22;1312;50.298;8.520;2024-01-11T14:57:36;9.50;17.50
2605;DHT22;1312;50.298;8.520;2024-01-11T15:00:06;9.20;15.30
2605;DHT22;1312;50.298;8.520;2024-01-11T15:02:36;8.90;13.70
2605;DHT22;1312;50.298;8.520;2024-01-11T15:05:05;8.80;13.10
2605;DHT22;1312;50.298;8.520;2024-01-11T15:07:34;9.10;14.80
2605;DHT22;1312;50.298;8.520;2024-01-11T15:10:02;8.70;11.40
2605;DHT22;1312;50.298;8.520;2024-01-11T15:12:30;6.80;1.00
2605;DHT22;1312;50.298;8.520;2024-01-11T15:14:58;5.40;1.00
2605;DHT22;1312;50.298;8.520;2024-01-11T15:17:26;4.30;1.00
2605;DHT22;1312;50.298;8.520;2024-01-11T15:19:55;3.40;1.00
2605;DHT22;1312;50.298;8.520;2024-01-11T15:22:25;2.90;1.00
2605;DHT22;1312;50.298;8.520;2024-01-11T15:24:54;2.50;1.00
2605;DHT22;1312;50.298;8.520;2024-01-11T15:27:22;2.20;1.00
2605;DHT22;1312;50.298;8.520;2024-01-11T15:29:50;1.80;1.00
2605;DHT22;1312;50.298;8.520;2024-01-11T15:32:18;1.60;1.00
2605;DHT22;1312;50.298;8.520;2024-01-11T15:34:46;1.60;1.00
2605;DHT22;1312;50.298;8.520;2024-01-11T15:37:15;1.40;1.00
2605;DHT22;1312;50.298;8.520;2024-01-11T15:39:45;1.20;1.00
2605;DHT22;1312;50.298;8.520;2024-01-11T15:42:14;1.00;1.00
2605;DHT22;1312;50.298;8.520;2024-01-11T15:44:42;0.90;1.00
2605;DHT22;1312;50.298;8.520;2024-01-11T15:47:11;0.90;1.00
2605;DHT22;1312;50.298;8.520;2024-01-11T15:49:39;0.80;1.00
2605;DHT22;1312;50.298;8.520;2024-01-11T15:52:07;0.90;1.00
2605;DHT22;1312;50.298;8.520;2024-01-11T15:54:36;0.70;1.00
2605;DHT22;1312;50.298;8.520;2024-01-11T15:57:04;0.50;1.00
2605;DHT22;1312;50.298;8.520;2024-01-11T15:59:33;0.40;1.00
2605;DHT22;1312;50.298;8.520;2024-01-11T16:02:01;0.30;1.00
2605;DHT22;1312;50.298;8.520;2024-01-11T16:04:33;0.30;1.00
2605;DHT22;1312;50.298;8.520;2024-01-11T16:07:01;0.30;1.00
2605;DHT22;1312;50.298;8.520;2024-01-11T16:09:30;0.30;1.00
2605;DHT22;1312;50.298;8.520;2024-01-11T16:11:59;0.10;1.00
2605;DHT22;1312;50.298;8.520;2024-01-11T16:14:32;0.00;1.00
2605;DHT22;1312;50.298;8.520;2024-01-11T16:17:00;0.00;1.00
2605;DHT22;1312;50.298;8.520;2024-01-11T16:19:28;0.00;1.00
2605;DHT22;1312;50.298;8.520;2024-01-11T16:21:57;0.00;1.00
2605;DHT22;1312;50.298;8.520;2024-01-11T16:24:25;-0.10;1.00
2605;DHT22;1312;50.298;8.520;2024-01-11T16:26:53;-0.10;1.00
2605;DHT22;1312;50.298;8.520;2024-01-11T16:29:22;-0.20;1.00